createdAt,value
2023-05-05T00:00:35.998Z,16.88
2023-05-05T00:03:02.854Z,16.90
2023-05-05T00:05:29.319Z,16.89
2023-05-05T00:07:55.765Z,16.93
2023-05-05T00:10:22.310Z,17.04
2023-05-05T00:12:49.047Z,17.11
2023-05-05T00:15:15.604Z,17.11
2023-05-05T00:17:42.050Z,17.11
2023-05-05T00:20:10.238Z,17.06
2023-05-05T00:22:37.074Z,17.06
2023-05-05T00:25:04.844Z,16.95
2023-05-05T00:27:31.241Z,16.95
2023-05-05T00:29:57.736Z,16.86
2023-05-05T00:32:24.282Z,16.82
2023-05-05T00:34:50.774Z,16.86
2023-05-05T00:37:17.273Z,16.89
2023-05-05T00:39:44.751Z,16.86
2023-05-05T00:42:11.170Z,16.88
2023-05-05T00:44:40.586Z,16.71
2023-05-05T00:47:08.777Z,16.71
2023-05-05T00:49:36.427Z,16.67
2023-05-05T00:52:04.951Z,16.59
2023-05-05T00:54:31.617Z,16.67
2023-05-05T00:56:58.083Z,16.78
2023-05-05T00:59:24.671Z,16.67
2023-05-05T01:01:51.187Z,16.58
2023-05-05T01:04:19.889Z,16.54
2023-05-05T01:07:01.546Z,16.47
2023-05-05T01:10:04.480Z,16.34
2023-05-05T01:13:00.681Z,16.28
2023-05-05T01:16:14.893Z,16.37
2023-05-05T01:19:18.581Z,16.13
2023-05-05T01:21:53.374Z,15.93
2023-05-05T01:24:45.635Z,16.18
2023-05-05T01:27:29.401Z,16.11
2023-05-05T01:30:11.993Z,15.87
2023-05-05T01:32:47.737Z,15.76
2023-05-05T01:35:20.705Z,15.65
2023-05-05T01:38:05.902Z,15.59
2023-05-05T01:40:39.183Z,15.52
2023-05-05T01:43:08.169Z,15.41
2023-05-05T01:45:39.337Z,15.36
2023-05-05T01:48:08.300Z,15.32
2023-05-05T01:50:35.823Z,15.36
2023-05-05T01:53:04.872Z,15.20
2023-05-05T01:55:33.875Z,15.18
2023-05-05T01:58:02.422Z,15.07
2023-05-05T02:00:30.381Z,15.00
2023-05-05T02:02:57.926Z,15.07
2023-05-05T02:05:26.772Z,14.91
2023-05-05T02:07:57.005Z,15.00
2023-05-05T02:10:25.144Z,14.91
2023-05-05T02:12:53.041Z,14.90
2023-05-05T02:15:21.992Z,14.85
2023-05-05T02:17:51.879Z,14.90
2023-05-05T02:20:19.794Z,14.80
2023-05-05T02:22:46.747Z,14.87
2023-05-05T02:25:13.164Z,15.08
2023-05-05T02:27:43.171Z,14.94
2023-05-05T02:30:13.668Z,14.81
2023-05-05T02:32:45.249Z,14.97
2023-05-05T02:35:19.673Z,14.79
2023-05-05T02:38:02.770Z,15.08
2023-05-05T02:40:33.129Z,14.87
2023-05-05T02:43:04.818Z,14.87
2023-05-05T02:45:31.412Z,14.79
2023-05-05T02:48:01.612Z,14.77
2023-05-05T02:50:28.105Z,14.83
2023-05-05T02:52:54.525Z,14.59
2023-05-05T02:55:21.236Z,14.52
2023-05-05T02:57:48.976Z,14.55
2023-05-05T03:00:29.294Z,14.44
2023-05-05T03:03:09.279Z,14.62
2023-05-05T03:05:49.351Z,14.44
2023-05-05T03:08:28.453Z,14.53
2023-05-05T03:11:19.194Z,14.84
2023-05-05T03:13:55.920Z,14.81
2023-05-05T03:16:24.528Z,15.05
2023-05-05T03:18:52.140Z,15.35
2023-05-05T03:21:19.182Z,15.15
2023-05-05T03:23:45.798Z,15.12
2023-05-05T03:26:12.249Z,15.10
2023-05-05T03:28:38.689Z,15.01
2023-05-05T03:31:08.344Z,14.87
2023-05-05T03:33:34.799Z,14.85
2023-05-05T03:36:01.439Z,14.80
2023-05-05T03:38:27.846Z,14.87
2023-05-05T03:40:54.317Z,14.70
2023-05-05T03:43:20.662Z,14.70
2023-05-05T03:45:47.381Z,14.55
2023-05-05T03:48:13.870Z,14.69
2023-05-05T03:50:40.607Z,14.52
2023-05-05T03:53:07.003Z,14.37
2023-05-05T03:55:33.520Z,14.19
2023-05-05T03:57:59.903Z,14.26
2023-05-05T04:00:26.327Z,14.26
2023-05-05T04:02:52.819Z,14.35
2023-05-05T04:05:19.822Z,14.11
2023-05-05T04:07:46.213Z,14.21
2023-05-05T04:10:12.609Z,14.08
2023-05-05T04:12:39.218Z,14.19
2023-05-05T04:15:08.220Z,14.26
2023-05-05T04:17:34.705Z,14.28
2023-05-05T04:20:03.544Z,14.15
2023-05-05T04:22:29.997Z,14.32
2023-05-05T04:24:56.421Z,14.33
2023-05-05T04:27:25.198Z,14.30
2023-05-05T04:29:51.974Z,14.40
2023-05-05T04:32:18.637Z,14.36
2023-05-05T04:34:46.376Z,14.30
2023-05-05T04:37:13.620Z,14.30
2023-05-05T04:39:40.214Z,14.28
2023-05-05T04:42:06.825Z,14.35
2023-05-05T04:44:33.875Z,14.49
2023-05-05T04:47:01.095Z,14.76
2023-05-05T04:49:32.226Z,14.72
2023-05-05T04:51:58.615Z,14.81
2023-05-05T04:54:25.112Z,14.76
2023-05-05T04:56:51.645Z,14.90
2023-05-05T04:59:18.152Z,14.94
2023-05-05T05:01:44.700Z,14.93
2023-05-05T05:04:12.290Z,15.10
2023-05-05T05:06:38.720Z,14.98
2023-05-05T05:09:07.272Z,14.93
2023-05-05T05:11:34.162Z,15.04
2023-05-05T05:14:00.713Z,15.18
2023-05-05T05:16:27.354Z,15.31
2023-05-05T05:18:54.777Z,15.45
2023-05-05T05:21:22.646Z,15.62
2023-05-05T05:23:49.281Z,15.61
2023-05-05T05:26:16.499Z,15.65
2023-05-05T05:28:47.804Z,15.59
2023-05-05T05:31:15.058Z,15.59
2023-05-05T05:33:41.645Z,15.70
2023-05-05T05:36:08.335Z,15.74
2023-05-05T05:38:34.777Z,15.80
2023-05-05T05:41:06.290Z,15.90
2023-05-05T05:43:33.545Z,15.79
2023-05-05T05:46:01.723Z,15.96
2023-05-05T05:48:31.552Z,15.85
2023-05-05T05:50:58.046Z,15.93
2023-05-05T05:53:24.507Z,15.96
2023-05-05T05:55:51.151Z,16.01
2023-05-05T05:58:20.136Z,16.16
2023-05-05T06:00:48.798Z,16.32
2023-05-05T06:03:17.653Z,16.32
2023-05-05T06:05:46.266Z,16.35
2023-05-05T06:08:12.805Z,16.48
2023-05-05T06:10:39.914Z,16.42
2023-05-05T06:13:06.743Z,16.44
2023-05-05T06:15:33.315Z,16.51
2023-05-05T06:17:59.863Z,16.51
2023-05-05T06:20:29.126Z,16.59
2023-05-05T06:22:55.696Z,16.67
2023-05-05T06:25:24.954Z,16.68
2023-05-05T06:27:51.338Z,16.71
2023-05-05T06:32:36.161Z,16.98
2023-05-05T06:35:03.833Z,17.27
2023-05-05T06:37:30.659Z,17.23
2023-05-05T06:39:57.077Z,17.23
2023-05-05T06:42:23.532Z,17.30
2023-05-05T06:44:50.341Z,17.55
2023-05-05T06:47:17.602Z,17.62
2023-05-05T06:49:48.087Z,17.74
2023-05-05T06:52:14.564Z,17.74
2023-05-05T06:54:41.204Z,17.86
2023-05-05T06:57:07.621Z,18.15
2023-05-05T06:59:35.409Z,18.20
2023-05-05T07:02:03.207Z,18.23
2023-05-05T07:04:29.670Z,18.22
2023-05-05T07:06:58.553Z,18.22
2023-05-05T07:09:24.999Z,18.16
2023-05-05T07:12:11.580Z,18.27
2023-05-05T07:14:38.087Z,18.85
2023-05-05T07:17:05.151Z,18.37
2023-05-05T07:19:33.101Z,18.53
2023-05-05T07:21:59.575Z,18.17
2023-05-05T07:24:25.992Z,18.29
2023-05-05T07:26:52.630Z,18.63
2023-05-05T07:29:21.856Z,18.47
2023-05-05T07:31:48.382Z,18.23
2023-05-05T07:34:14.759Z,18.56
2023-05-05T07:36:41.737Z,18.47
2023-05-05T07:39:08.228Z,18.44
2023-05-05T07:41:35.037Z,18.63
2023-05-05T07:44:01.575Z,18.61
2023-05-05T07:46:28.198Z,18.80
2023-05-05T07:48:54.784Z,18.88
2023-05-05T07:51:21.473Z,18.85
2023-05-05T07:53:47.862Z,19.14
2023-05-05T07:56:14.355Z,19.74
2023-05-05T07:58:40.914Z,19.66
2023-05-05T08:01:11.553Z,20.18
2023-05-05T08:03:38.309Z,20.90
2023-05-05T08:06:11.764Z,21.19
2023-05-05T08:08:40.501Z,21.78
2023-05-05T08:11:09.733Z,21.23
2023-05-05T08:13:37.112Z,21.95
2023-05-05T08:16:04.142Z,21.95
2023-05-05T08:18:30.716Z,23.22
2023-05-05T08:20:57.776Z,22.64
2023-05-05T08:23:24.200Z,22.08
2023-05-05T08:25:50.621Z,21.17
2023-05-05T08:28:17.160Z,21.69
2023-05-05T08:30:43.525Z,22.16
2023-05-05T08:33:09.896Z,22.44
2023-05-05T08:35:36.636Z,21.77
2023-05-05T08:38:03.193Z,21.51
2023-05-05T08:40:33.971Z,21.48
2023-05-05T08:43:01.406Z,20.84
2023-05-05T08:45:29.294Z,21.85
2023-05-05T08:48:04.049Z,22.48
2023-05-05T08:50:31.508Z,23.34
2023-05-05T08:53:10.159Z,21.32
2023-05-05T08:55:55.174Z,20.83
2023-05-05T08:58:25.547Z,21.37
2023-05-05T09:00:53.470Z,21.48
2023-05-05T09:03:20.793Z,22.78
2023-05-05T09:05:55.079Z,22.53
2023-05-05T09:08:22.975Z,22.61
2023-05-05T09:10:51.560Z,22.12
2023-05-05T09:13:18.202Z,21.96
2023-05-05T09:15:44.688Z,23.24
2023-05-05T09:18:16.586Z,22.80
2023-05-05T09:20:43.016Z,21.92
2023-05-05T09:23:09.528Z,23.47
2023-05-05T09:25:38.724Z,23.96
2023-05-05T09:28:12.872Z,22.90
2023-05-05T09:30:43.139Z,22.66
2023-05-05T09:33:09.908Z,22.61
2023-05-05T09:35:56.983Z,22.92
2023-05-05T09:38:24.613Z,24.30
2023-05-05T09:40:52.863Z,25.75
2023-05-05T09:43:22.163Z,23.52
2023-05-05T09:45:49.147Z,23.58
2023-05-05T09:48:31.632Z,25.16
2023-05-05T09:50:58.955Z,24.81
2023-05-05T09:53:27.359Z,25.34
2023-05-05T09:55:58.505Z,26.07
2023-05-05T09:58:30.811Z,26.90
2023-05-05T10:00:59.434Z,26.28
2023-05-05T10:03:26.340Z,23.41
2023-05-05T10:05:57.455Z,22.50
2023-05-05T10:08:26.970Z,24.89
2023-05-05T10:11:00.530Z,25.12
2023-05-05T10:13:28.061Z,25.66
2023-05-05T10:15:56.389Z,24.93
2023-05-05T10:18:28.725Z,26.59
2023-05-05T10:21:01.870Z,25.16
2023-05-05T10:23:36.287Z,26.88
2023-05-05T10:26:06.231Z,27.05
2023-05-05T10:28:44.770Z,25.13
2023-05-05T10:31:26.587Z,26.86
2023-05-05T10:33:59.053Z,27.52
2023-05-05T10:36:26.387Z,26.43
2023-05-05T10:38:56.654Z,25.19
2023-05-05T10:41:25.028Z,24.30
2023-05-05T10:43:55.132Z,24.10
2023-05-05T10:46:23.371Z,23.87
2023-05-05T10:48:59.635Z,23.16
2023-05-05T10:51:40.436Z,22.83
2023-05-05T10:54:39.386Z,22.30
2023-05-05T10:57:10.565Z,21.61
2023-05-05T10:59:37.206Z,21.42
2023-05-05T11:02:22.429Z,21.65
2023-05-05T11:05:08.167Z,21.86
2023-05-05T11:07:35.346Z,21.57
2023-05-05T11:10:07.646Z,21.52
2023-05-05T11:12:54.896Z,21.31
2023-05-05T11:15:24.236Z,21.03
2023-05-05T11:17:51.347Z,20.69
2023-05-05T11:20:18.300Z,20.49
2023-05-05T11:23:02.932Z,20.66
2023-05-05T11:25:36.461Z,20.56
2023-05-05T11:28:21.150Z,20.28
2023-05-05T11:30:57.492Z,20.05
2023-05-05T11:33:39.875Z,19.62
2023-05-05T11:36:13.027Z,19.47
2023-05-05T11:38:39.379Z,19.12
2023-05-05T11:41:12.738Z,18.73
2023-05-05T11:43:41.839Z,18.41
2023-05-05T11:46:12.777Z,18.23
2023-05-05T11:48:52.996Z,17.64
2023-05-05T11:51:19.880Z,17.11
2023-05-05T11:53:51.451Z,16.55
2023-05-05T11:56:22.655Z,16.27
2023-05-05T11:59:04.798Z,16.01
2023-05-05T12:01:31.443Z,15.67
2023-05-05T12:03:58.151Z,15.52
2023-05-05T12:06:24.947Z,15.18
2023-05-05T12:08:51.528Z,15.14
2023-05-05T12:11:18.388Z,15.24
2023-05-05T12:13:44.827Z,15.46
2023-05-05T12:16:14.893Z,15.70
2023-05-05T12:18:42.068Z,15.94
2023-05-05T12:21:14.804Z,16.17
2023-05-05T12:23:41.226Z,16.44
2023-05-05T12:26:08.018Z,16.62
2023-05-05T12:28:46.378Z,17.04
2023-05-05T12:31:13.023Z,17.43
2023-05-05T12:33:40.393Z,17.83
2023-05-05T12:36:09.967Z,17.78
2023-05-05T12:38:36.635Z,17.71
2023-05-05T12:41:03.293Z,17.65
2023-05-05T12:43:35.032Z,18.37
2023-05-05T12:46:07.136Z,18.61
2023-05-05T12:48:34.964Z,18.83
2023-05-05T12:51:18.663Z,18.80
2023-05-05T12:53:49.887Z,19.23
2023-05-05T12:56:33.223Z,19.66
2023-05-05T12:59:02.958Z,19.59
2023-05-05T13:01:29.906Z,19.63
2023-05-05T13:04:13.010Z,19.76
2023-05-05T13:06:44.379Z,19.90
2023-05-05T13:09:35.637Z,20.15
2023-05-05T13:12:07.017Z,20.21
2023-05-05T13:14:34.722Z,20.52
2023-05-05T13:17:01.233Z,20.63
2023-05-05T13:19:27.738Z,20.89
2023-05-05T13:21:55.549Z,20.92
2023-05-05T13:24:34.426Z,21.50
2023-05-05T13:27:05.503Z,21.65
2023-05-05T13:29:32.362Z,21.27
2023-05-05T13:31:58.963Z,20.77
2023-05-05T13:34:27.745Z,20.92
2023-05-05T13:36:54.203Z,21.64
2023-05-05T13:39:20.770Z,21.98
2023-05-05T13:41:47.189Z,21.10
2023-05-05T13:44:14.256Z,21.06
2023-05-05T13:46:42.519Z,20.22
2023-05-05T13:49:11.465Z,19.28
2023-05-05T13:51:38.937Z,19.78
2023-05-05T13:54:06.570Z,20.25
2023-05-05T13:56:33.699Z,20.58
2023-05-05T13:59:01.165Z,20.82
2023-05-05T14:01:27.837Z,20.36
2023-05-05T14:03:56.866Z,19.90
2023-05-05T14:06:23.755Z,19.88
2023-05-05T14:08:50.327Z,19.38
2023-05-05T14:11:18.220Z,19.66
2023-05-05T14:13:46.475Z,19.83
2023-05-05T14:16:13.531Z,19.80
2023-05-05T14:18:40.053Z,19.91
2023-05-05T14:21:06.627Z,19.41
2023-05-05T14:23:33.169Z,19.26
2023-05-05T14:26:00.970Z,19.46
2023-05-05T14:28:27.440Z,19.52
2023-05-05T14:30:53.830Z,19.39
2023-05-05T14:33:20.968Z,19.36
2023-05-05T14:35:50.720Z,19.34
2023-05-05T14:38:20.092Z,19.31
2023-05-05T14:40:47.804Z,19.12
2023-05-05T14:43:14.460Z,18.92
2023-05-05T14:45:41.714Z,18.58
2023-05-05T14:48:08.586Z,18.32
2023-05-05T14:50:35.104Z,18.05
2023-05-05T14:53:01.653Z,17.88
2023-05-05T14:55:31.247Z,17.38
2023-05-05T14:57:57.888Z,16.98
2023-05-05T15:00:26.670Z,16.57
2023-05-05T15:02:53.630Z,15.97
2023-05-05T15:05:26.111Z,15.76
2023-05-05T15:07:56.566Z,15.65
2023-05-05T15:10:36.773Z,15.51
2023-05-05T15:13:03.790Z,15.56
2023-05-05T15:15:43.602Z,15.11
2023-05-05T15:18:10.206Z,15.05
2023-05-05T15:20:36.821Z,14.98
2023-05-05T15:23:04.217Z,14.64
2023-05-05T15:25:59.032Z,14.69
2023-05-05T15:28:25.678Z,14.59
2023-05-05T15:30:52.384Z,14.69
2023-05-05T15:33:18.916Z,14.72
2023-05-05T15:35:46.657Z,14.72
2023-05-05T15:38:13.309Z,14.53
2023-05-05T15:40:40.228Z,14.63
2023-05-05T15:43:07.250Z,14.60
2023-05-05T15:45:34.290Z,14.73
2023-05-05T15:48:02.220Z,14.88
2023-05-05T15:50:29.003Z,14.98
2023-05-05T15:52:57.219Z,15.01
2023-05-05T15:55:25.385Z,15.22
2023-05-05T15:57:52.769Z,15.18
2023-05-05T16:00:19.572Z,15.31
2023-05-05T16:02:46.178Z,15.45
2023-05-05T16:05:12.967Z,15.55
2023-05-05T16:07:39.564Z,15.66
2023-05-05T16:10:07.326Z,15.63
2023-05-05T16:12:36.099Z,15.72
2023-05-05T16:15:06.370Z,15.79
2023-05-05T16:17:34.631Z,15.97
2023-05-05T16:20:01.963Z,16.04
2023-05-05T16:22:28.655Z,16.10
2023-05-05T16:24:55.080Z,16.18
2023-05-05T16:27:21.724Z,16.03
2023-05-05T16:29:48.214Z,16.13
2023-05-05T16:32:14.719Z,16.27
2023-05-05T16:34:43.145Z,16.07
2023-05-05T16:37:09.762Z,16.21
2023-05-05T16:39:40.114Z,16.38
2023-05-05T16:42:06.903Z,16.61
2023-05-05T16:44:33.423Z,16.82
2023-05-05T16:46:59.834Z,16.69
2023-05-05T16:49:26.299Z,16.55
2023-05-05T16:51:53.425Z,16.48
2023-05-05T16:54:21.535Z,16.35
2023-05-05T16:56:47.945Z,16.54
2023-05-05T16:59:16.729Z,16.48
2023-05-05T17:01:43.870Z,16.65
2023-05-05T17:04:11.012Z,16.41
2023-05-05T17:06:38.899Z,16.58
2023-05-05T17:09:06.763Z,16.28
2023-05-05T17:11:33.690Z,16.30
2023-05-05T17:14:00.329Z,16.37
2023-05-05T17:16:26.864Z,16.18
2023-05-05T17:18:56.514Z,16.34
2023-05-05T17:21:23.343Z,16.20
2023-05-05T17:23:50.720Z,16.16
2023-05-05T17:26:17.552Z,16.06
2023-05-05T17:28:43.992Z,15.94
2023-05-05T17:31:10.845Z,16.07
2023-05-05T17:33:37.365Z,16.09
2023-05-05T17:36:03.979Z,15.99
2023-05-05T17:38:30.490Z,15.90
2023-05-05T17:40:58.877Z,16.07
2023-05-05T17:43:25.399Z,16.28
2023-05-05T17:45:51.948Z,15.99
2023-05-05T17:48:18.586Z,15.90
2023-05-05T17:50:47.190Z,15.96
2023-05-05T17:53:13.647Z,16.13
2023-05-05T17:57:36.554Z,15.77
2023-05-05T18:00:04.736Z,15.79
2023-05-05T18:02:34.270Z,15.63
2023-05-05T18:05:14.482Z,15.45
2023-05-05T18:07:41.125Z,15.41
2023-05-05T18:10:08.455Z,15.35
2023-05-05T18:12:35.311Z,15.30
2023-05-05T18:15:04.030Z,15.32
2023-05-05T18:17:30.853Z,15.12
2023-05-05T18:19:57.686Z,14.94
2023-05-05T18:22:24.054Z,14.84
2023-05-05T18:24:50.528Z,14.81
2023-05-05T18:27:17.287Z,14.79
2023-05-05T18:29:43.986Z,14.91
2023-05-05T18:32:13.433Z,14.93
2023-05-05T18:34:42.622Z,14.77
2023-05-05T18:37:09.117Z,14.85
2023-05-05T18:39:36.588Z,14.91
2023-05-05T18:42:07.986Z,14.97
2023-05-05T18:44:37.342Z,14.85
2023-05-05T18:47:03.951Z,14.67
2023-05-05T18:49:31.562Z,14.64
2023-05-05T18:51:58.460Z,14.72
2023-05-05T18:54:25.790Z,14.76
2023-05-05T18:56:52.692Z,14.87
2023-05-05T18:59:19.165Z,14.85
2023-05-05T19:01:46.416Z,14.88
2023-05-05T19:04:26.677Z,14.83
2023-05-05T19:06:56.334Z,14.83
2023-05-05T19:09:22.809Z,14.88
2023-05-05T19:11:49.480Z,14.81
2023-05-05T19:14:16.865Z,14.66
2023-05-05T19:16:43.914Z,14.53
2023-05-05T19:19:11.152Z,14.57
2023-05-05T19:21:37.685Z,14.56
2023-05-05T19:24:04.431Z,14.49
2023-05-05T19:26:31.403Z,14.51
2023-05-05T19:28:57.868Z,14.52
2023-05-05T19:31:27.529Z,14.53
2023-05-05T19:34:02.623Z,14.56
2023-05-05T19:36:31.665Z,14.62
2023-05-05T19:39:00.909Z,14.59
2023-05-05T19:41:28.493Z,14.55
2023-05-05T19:43:54.977Z,14.40
2023-05-05T19:46:21.501Z,14.32
2023-05-05T19:48:48.429Z,14.25
2023-05-05T19:51:14.923Z,14.18
2023-05-05T19:53:42.812Z,14.08
2023-05-05T19:56:10.216Z,14.05
2023-05-05T19:58:57.454Z,14.06
2023-05-05T20:01:24.470Z,13.97
2023-05-05T20:03:53.360Z,13.97
2023-05-05T20:06:20.270Z,13.90
2023-05-05T20:08:46.860Z,13.83
2023-05-05T20:11:15.301Z,13.80
2023-05-05T20:13:42.268Z,13.75
2023-05-05T20:16:11.100Z,13.71
2023-05-05T20:18:37.613Z,13.68
2023-05-05T20:21:04.625Z,13.68
2023-05-05T20:23:31.164Z,13.58
2023-05-05T20:25:57.791Z,13.53
2023-05-05T20:28:24.659Z,13.61
2023-05-05T20:30:51.261Z,13.63
2023-05-05T20:33:18.112Z,13.64
2023-05-05T20:35:44.824Z,13.54
2023-05-05T20:38:11.419Z,13.43
2023-05-05T20:40:38.023Z,13.48
2023-05-05T20:43:04.482Z,13.54
2023-05-05T20:45:33.289Z,13.58
2023-05-05T20:48:00.455Z,13.57
2023-05-05T20:50:28.880Z,13.47
2023-05-05T20:52:55.836Z,13.48
2023-05-05T20:55:23.519Z,13.47
2023-05-05T20:57:50.920Z,13.47
2023-05-05T21:00:17.345Z,13.53
2023-05-05T21:02:46.199Z,13.53
2023-05-05T21:05:13.937Z,13.50
2023-05-05T21:07:41.000Z,13.46
2023-05-05T21:10:08.816Z,13.58
2023-05-05T21:12:35.617Z,13.50
2023-05-05T21:15:02.971Z,13.74
2023-05-05T21:17:29.551Z,13.58
2023-05-05T21:19:57.601Z,13.56
2023-05-05T21:22:24.133Z,13.50
2023-05-05T21:25:37.351Z,13.57
2023-05-05T21:28:04.013Z,13.61
2023-05-05T21:30:30.853Z,13.58
2023-05-05T21:32:57.369Z,13.65
2023-05-05T21:35:24.033Z,13.78
2023-05-05T21:37:50.561Z,13.71
2023-05-05T21:40:17.535Z,13.90
2023-05-05T21:42:44.145Z,13.95
2023-05-05T21:45:11.414Z,13.77
2023-05-05T21:47:37.989Z,13.80
2023-05-05T21:50:04.796Z,13.68
2023-05-05T21:52:31.418Z,13.70
2023-05-05T21:54:58.172Z,13.77
2023-05-05T21:57:25.672Z,13.64
2023-05-05T21:59:52.720Z,13.53
2023-05-05T22:02:19.676Z,13.58
2023-05-05T22:04:48.606Z,13.36
2023-05-05T22:07:15.422Z,13.37
2023-05-05T22:09:42.225Z,13.40
2023-05-05T22:12:08.637Z,13.40
2023-05-05T22:14:35.944Z,13.42
2023-05-05T22:17:02.487Z,13.57
2023-05-05T22:19:29.056Z,13.51
2023-05-05T22:21:57.385Z,13.56
2023-05-05T22:24:23.820Z,13.54
2023-05-05T22:26:50.672Z,13.47
2023-05-05T22:29:17.321Z,13.54
2023-05-05T22:31:43.790Z,13.58
2023-05-05T22:34:10.555Z,13.56
2023-05-05T22:36:37.024Z,13.48
2023-05-05T22:39:03.513Z,13.58
2023-05-05T22:41:29.956Z,13.57
2023-05-05T22:43:58.071Z,13.43
2023-05-05T22:46:24.646Z,13.36
2023-05-05T22:48:52.310Z,13.26
2023-05-05T22:51:18.971Z,13.34
2023-05-05T22:53:45.518Z,13.39
2023-05-05T22:56:12.256Z,13.57
2023-05-05T22:58:38.884Z,13.70
2023-05-05T23:01:05.706Z,13.77
2023-05-05T23:03:32.221Z,13.60
2023-05-05T23:05:59.023Z,13.84
2023-05-05T23:08:25.528Z,13.57
2023-05-05T23:10:53.589Z,13.83
2023-05-05T23:13:20.284Z,13.77
2023-05-05T23:15:46.828Z,13.74
2023-05-05T23:18:13.312Z,13.68
2023-05-05T23:20:39.776Z,13.57
2023-05-05T23:23:06.225Z,13.44
2023-05-05T23:25:32.635Z,13.40
2023-05-05T23:27:59.189Z,13.37
2023-05-05T23:30:25.920Z,13.32
2023-05-05T23:32:52.455Z,13.25
2023-05-05T23:35:18.984Z,13.20
2023-05-05T23:37:45.459Z,13.29
2023-05-05T23:40:12.043Z,13.26
2023-05-05T23:42:38.540Z,13.27
2023-05-05T23:45:05.340Z,13.42
2023-05-05T23:47:32.155Z,13.25
2023-05-05T23:49:58.706Z,13.32
2023-05-05T23:52:25.191Z,13.26
2023-05-05T23:54:51.706Z,13.18
